sensor_id;sensor_type;location;lat;lon;timestamp;P1;durP1;ratioP1;P2;durP2;ratioP2
21507;SDS011;10915;54.352;9.074;2023-03-14T00:01:33;29.53;;;5.60;;
21507;SDS011;10915;54.352;9.074;2023-03-14T00:03:59;25.10;;;5.10;;
21507;SDS011;10915;54.352;9.074;2023-03-14T00:06:25;32.70;;;7.33;;
21507;SDS011;10915;54.352;9.074;2023-03-14T00:08:51;28.70;;;5.70;;
21507;SDS011;10915;54.352;9.074;2023-03-14T00:11:17;27.10;;;5.97;;
21507;SDS011;10915;54.352;9.074;2023-03-14T00:13:48;23.27;;;5.87;;
21507;SDS011;10915;54.352;9.074;2023-03-14T00:16:15;28.17;;;6.67;;
21507;SDS011;10915;54.352;9.074;2023-03-14T00:18:40;23.60;;;5.67;;
21507;SDS011;10915;54.352;9.074;2023-03-14T00:21:06;29.57;;;5.77;;
21507;SDS011;10915;54.352;9.074;2023-03-14T00:23:34;25.77;;;6.30;;
21507;SDS011;10915;54.352;9.074;2023-03-14T00:26:02;27.00;;;6.17;;
21507;SDS011;10915;54.352;9.074;2023-03-14T00:28:29;22.40;;;5.93;;
21507;SDS011;10915;54.352;9.074;2023-03-14T00:30:55;26.90;;;5.87;;
21507;SDS011;10915;54.352;9.074;2023-03-14T00:33:21;26.73;;;6.30;;
21507;SDS011;10915;54.352;9.074;2023-03-14T00:35:54;21.80;;;6.00;;
21507;SDS011;10915;54.352;9.074;2023-03-14T00:38:19;27.77;;;5.37;;
21507;SDS011;10915;54.352;9.074;2023-03-14T00:40:46;20.27;;;5.60;;
21507;SDS011;10915;54.352;9.074;2023-03-14T00:43:11;22.77;;;5.20;;
21507;SDS011;10915;54.352;9.074;2023-03-14T00:45:37;31.90;;;7.33;;
21507;SDS011;10915;54.352;9.074;2023-03-14T00:48:03;28.80;;;6.20;;
21507;SDS011;10915;54.352;9.074;2023-03-14T00:50:28;28.47;;;5.90;;
21507;SDS011;10915;54.352;9.074;2023-03-14T00:52:54;26.73;;;5.57;;
21507;SDS011;10915;54.352;9.074;2023-03-14T00:55:19;18.23;;;5.37;;
21507;SDS011;10915;54.352;9.074;2023-03-14T00:57:45;27.80;;;6.27;;
21507;SDS011;10915;54.352;9.074;2023-03-14T01:00:11;25.50;;;5.30;;
21507;SDS011;10915;54.352;9.074;2023-03-14T01:02:37;27.83;;;7.33;;
21507;SDS011;10915;54.352;9.074;2023-03-14T01:05:03;28.13;;;5.87;;
21507;SDS011;10915;54.352;9.074;2023-03-14T01:07:29;32.00;;;6.40;;
21507;SDS011;10915;54.352;9.074;2023-03-14T01:09:55;26.63;;;6.13;;
21507;SDS011;10915;54.352;9.074;2023-03-14T01:12:20;24.23;;;5.97;;
21507;SDS011;10915;54.352;9.074;2023-03-14T01:14:46;22.83;;;5.57;;
21507;SDS011;10915;54.352;9.074;2023-03-14T01:17:11;31.57;;;5.80;;
21507;SDS011;10915;54.352;9.074;2023-03-14T01:19:37;29.63;;;6.20;;
21507;SDS011;10915;54.352;9.074;2023-03-14T01:22:03;26.60;;;5.83;;
21507;SDS011;10915;54.352;9.074;2023-03-14T01:24:28;28.87;;;6.60;;
21507;SDS011;10915;54.352;9.074;2023-03-14T01:26:54;26.33;;;5.63;;
21507;SDS011;10915;54.352;9.074;2023-03-14T01:29:20;28.33;;;4.97;;
21507;SDS011;10915;54.352;9.074;2023-03-14T01:31:45;22.43;;;6.00;;
21507;SDS011;10915;54.352;9.074;2023-03-14T01:34:11;27.70;;;6.30;;
21507;SDS011;10915;54.352;9.074;2023-03-14T01:36:36;30.47;;;6.00;;
21507;SDS011;10915;54.352;9.074;2023-03-14T01:39:02;27.23;;;6.07;;
21507;SDS011;10915;54.352;9.074;2023-03-14T01:41:31;27.87;;;5.53;;
21507;SDS011;10915;54.352;9.074;2023-03-14T01:43:57;25.80;;;5.37;;
21507;SDS011;10915;54.352;9.074;2023-03-14T01:51:45;32.97;;;5.87;;
21507;SDS011;10915;54.352;9.074;2023-03-14T01:57:01;22.00;;;5.03;;
21507;SDS011;10915;54.352;9.074;2023-03-14T01:59:31;23.50;;;5.43;;
21507;SDS011;10915;54.352;9.074;2023-03-14T02:01:58;34.63;;;6.30;;
21507;SDS011;10915;54.352;9.074;2023-03-14T02:04:25;28.43;;;5.60;;
21507;SDS011;10915;54.352;9.074;2023-03-14T02:07:06;27.13;;;6.20;;
21507;SDS011;10915;54.352;9.074;2023-03-14T02:09:38;23.33;;;5.97;;
21507;SDS011;10915;54.352;9.074;2023-03-14T02:12:05;32.17;;;6.83;;
21507;SDS011;10915;54.352;9.074;2023-03-14T02:14:33;22.00;;;5.30;;
21507;SDS011;10915;54.352;9.074;2023-03-14T02:17:00;27.83;;;5.97;;
21507;SDS011;10915;54.352;9.074;2023-03-14T02:19:35;31.47;;;6.50;;
21507;SDS011;10915;54.352;9.074;2023-03-14T02:27:27;26.03;;;6.07;;
21507;SDS011;10915;54.352;9.074;2023-03-14T02:30:00;29.13;;;5.37;;
21507;SDS011;10915;54.352;9.074;2023-03-14T02:32:29;25.90;;;5.90;;
21507;SDS011;10915;54.352;9.074;2023-03-14T02:34:58;23.27;;;6.37;;
21507;SDS011;10915;54.352;9.074;2023-03-14T02:38:09;29.37;;;5.97;;
21507;SDS011;10915;54.352;9.074;2023-03-14T02:40:23;22.53;;;5.80;;
21507;SDS011;10915;54.352;9.074;2023-03-14T02:42:48;27.20;;;5.07;;
21507;SDS011;10915;54.352;9.074;2023-03-14T02:47:43;28.47;;;5.63;;
21507;SDS011;10915;54.352;9.074;2023-03-14T02:50:13;24.40;;;5.30;;
21507;SDS011;10915;54.352;9.074;2023-03-14T02:52:42;21.57;;;5.53;;
21507;SDS011;10915;54.352;9.074;2023-03-14T02:55:08;26.43;;;6.03;;
21507;SDS011;10915;54.352;9.074;2023-03-14T02:57:34;27.17;;;5.70;;
21507;SDS011;10915;54.352;9.074;2023-03-14T03:00:00;24.00;;;5.27;;
21507;SDS011;10915;54.352;9.074;2023-03-14T03:02:26;23.47;;;5.10;;
21507;SDS011;10915;54.352;9.074;2023-03-14T03:04:52;21.57;;;5.33;;
21507;SDS011;10915;54.352;9.074;2023-03-14T03:07:18;24.30;;;5.87;;
21507;SDS011;10915;54.352;9.074;2023-03-14T03:09:44;20.73;;;5.20;;
21507;SDS011;10915;54.352;9.074;2023-03-14T03:12:10;23.10;;;5.27;;
21507;SDS011;10915;54.352;9.074;2023-03-14T03:14:35;20.43;;;5.07;;
21507;SDS011;10915;54.352;9.074;2023-03-14T03:17:02;30.63;;;5.07;;
21507;SDS011;10915;54.352;9.074;2023-03-14T03:19:29;23.33;;;4.67;;
21507;SDS011;10915;54.352;9.074;2023-03-14T03:21:55;22.93;;;5.00;;
21507;SDS011;10915;54.352;9.074;2023-03-14T03:24:20;20.30;;;4.40;;
21507;SDS011;10915;54.352;9.074;2023-03-14T03:26:46;24.10;;;5.80;;
21507;SDS011;10915;54.352;9.074;2023-03-14T03:29:12;20.57;;;4.93;;
21507;SDS011;10915;54.352;9.074;2023-03-14T03:31:38;19.47;;;5.07;;
21507;SDS011;10915;54.352;9.074;2023-03-14T03:34:03;22.50;;;5.67;;
21507;SDS011;10915;54.352;9.074;2023-03-14T03:36:29;17.97;;;4.63;;
21507;SDS011;10915;54.352;9.074;2023-03-14T03:38:55;23.00;;;5.33;;
21507;SDS011;10915;54.352;9.074;2023-03-14T03:41:21;22.07;;;5.00;;
21507;SDS011;10915;54.352;9.074;2023-03-14T03:43:46;19.97;;;5.00;;
21507;SDS011;10915;54.352;9.074;2023-03-14T03:46:12;20.70;;;5.40;;
21507;SDS011;10915;54.352;9.074;2023-03-14T03:48:38;14.93;;;4.00;;
21507;SDS011;10915;54.352;9.074;2023-03-14T03:51:04;21.13;;;4.43;;
21507;SDS011;10915;54.352;9.074;2023-03-14T03:53:30;23.10;;;4.77;;
21507;SDS011;10915;54.352;9.074;2023-03-14T03:55:55;17.27;;;4.10;;
21507;SDS011;10915;54.352;9.074;2023-03-14T03:58:21;17.10;;;5.27;;
21507;SDS011;10915;54.352;9.074;2023-03-14T04:00:48;13.17;;;4.00;;
21507;SDS011;10915;54.352;9.074;2023-03-14T04:03:13;13.20;;;3.70;;
21507;SDS011;10915;54.352;9.074;2023-03-14T04:05:39;13.60;;;3.90;;
21507;SDS011;10915;54.352;9.074;2023-03-14T04:08:05;13.80;;;3.90;;
21507;SDS011;10915;54.352;9.074;2023-03-14T04:10:33;14.37;;;3.50;;
21507;SDS011;10915;54.352;9.074;2023-03-14T04:13:00;11.87;;;3.33;;
21507;SDS011;10915;54.352;9.074;2023-03-14T04:15:25;9.50;;;3.13;;
21507;SDS011;10915;54.352;9.074;2023-03-14T04:17:51;18.83;;;4.37;;
21507;SDS011;10915;54.352;9.074;2023-03-14T04:20:20;12.30;;;3.47;;
21507;SDS011;10915;54.352;9.074;2023-03-14T04:22:46;13.50;;;4.20;;
21507;SDS011;10915;54.352;9.074;2023-03-14T04:25:12;11.50;;;3.70;;
21507;SDS011;10915;54.352;9.074;2023-03-14T04:27:37;17.73;;;4.80;;
21507;SDS011;10915;54.352;9.074;2023-03-14T04:30:03;8.47;;;3.40;;
21507;SDS011;10915;54.352;9.074;2023-03-14T04:32:29;13.90;;;4.17;;
21507;SDS011;10915;54.352;9.074;2023-03-14T04:34:54;12.67;;;4.20;;
21507;SDS011;10915;54.352;9.074;2023-03-14T04:37:20;14.93;;;3.97;;
21507;SDS011;10915;54.352;9.074;2023-03-14T04:39:45;12.17;;;4.10;;
21507;SDS011;10915;54.352;9.074;2023-03-14T04:42:11;14.07;;;4.07;;
21507;SDS011;10915;54.352;9.074;2023-03-14T04:44:37;13.23;;;5.00;;
21507;SDS011;10915;54.352;9.074;2023-03-14T04:47:02;13.57;;;4.23;;
21507;SDS011;10915;54.352;9.074;2023-03-14T04:49:28;13.53;;;4.30;;
21507;SDS011;10915;54.352;9.074;2023-03-14T04:51:54;15.10;;;4.60;;
21507;SDS011;10915;54.352;9.074;2023-03-14T04:54:19;13.80;;;3.83;;
21507;SDS011;10915;54.352;9.074;2023-03-14T04:56:45;15.77;;;4.57;;
21507;SDS011;10915;54.352;9.074;2023-03-14T04:59:10;15.30;;;4.20;;
21507;SDS011;10915;54.352;9.074;2023-03-14T05:01:36;11.07;;;3.73;;
21507;SDS011;10915;54.352;9.074;2023-03-14T05:04:02;15.47;;;4.17;;
21507;SDS011;10915;54.352;9.074;2023-03-14T05:06:28;11.63;;;3.80;;
21507;SDS011;10915;54.352;9.074;2023-03-14T05:08:53;14.77;;;4.00;;
21507;SDS011;10915;54.352;9.074;2023-03-14T05:11:19;13.47;;;4.33;;
21507;SDS011;10915;54.352;9.074;2023-03-14T05:13:45;13.83;;;4.43;;
21507;SDS011;10915;54.352;9.074;2023-03-14T05:16:11;14.87;;;3.93;;
21507;SDS011;10915;54.352;9.074;2023-03-14T05:18:37;14.30;;;4.27;;
21507;SDS011;10915;54.352;9.074;2023-03-14T05:21:03;16.07;;;4.60;;
21507;SDS011;10915;54.352;9.074;2023-03-14T05:23:29;13.37;;;4.40;;
21507;SDS011;10915;54.352;9.074;2023-03-14T05:25:55;17.60;;;4.83;;
21507;SDS011;10915;54.352;9.074;2023-03-14T05:28:20;17.53;;;4.93;;
21507;SDS011;10915;54.352;9.074;2023-03-14T05:30:46;22.03;;;5.40;;
21507;SDS011;10915;54.352;9.074;2023-03-14T05:33:12;20.30;;;5.17;;
21507;SDS011;10915;54.352;9.074;2023-03-14T05:35:37;19.30;;;5.93;;
21507;SDS011;10915;54.352;9.074;2023-03-14T05:38:03;21.77;;;5.40;;
21507;SDS011;10915;54.352;9.074;2023-03-14T05:40:29;25.20;;;5.20;;
21507;SDS011;10915;54.352;9.074;2023-03-14T05:42:54;24.80;;;5.53;;
21507;SDS011;10915;54.352;9.074;2023-03-14T05:45:20;18.37;;;5.07;;
21507;SDS011;10915;54.352;9.074;2023-03-14T05:47:45;20.53;;;5.60;;
21507;SDS011;10915;54.352;9.074;2023-03-14T05:50:11;25.40;;;6.07;;
21507;SDS011;10915;54.352;9.074;2023-03-14T05:52:37;20.90;;;6.27;;
21507;SDS011;10915;54.352;9.074;2023-03-14T05:55:03;16.87;;;5.20;;
21507;SDS011;10915;54.352;9.074;2023-03-14T05:57:29;22.77;;;6.07;;
21507;SDS011;10915;54.352;9.074;2023-03-14T05:59:55;22.10;;;5.70;;
21507;SDS011;10915;54.352;9.074;2023-03-14T06:02:20;21.97;;;6.60;;
21507;SDS011;10915;54.352;9.074;2023-03-14T06:04:46;22.27;;;5.83;;
21507;SDS011;10915;54.352;9.074;2023-03-14T06:07:12;22.57;;;6.13;;
21507;SDS011;10915;54.352;9.074;2023-03-14T06:09:38;22.00;;;6.43;;
21507;SDS011;10915;54.352;9.074;2023-03-14T06:12:05;21.73;;;6.30;;
21507;SDS011;10915;54.352;9.074;2023-03-14T06:14:31;26.83;;;6.83;;
21507;SDS011;10915;54.352;9.074;2023-03-14T06:16:57;21.80;;;6.23;;
21507;SDS011;10915;54.352;9.074;2023-03-14T06:19:24;20.87;;;6.17;;
21507;SDS011;10915;54.352;9.074;2023-03-14T06:21:50;21.23;;;6.63;;
21507;SDS011;10915;54.352;9.074;2023-03-14T06:24:16;19.27;;;6.83;;
21507;SDS011;10915;54.352;9.074;2023-03-14T06:26:42;21.13;;;6.63;;
21507;SDS011;10915;54.352;9.074;2023-03-14T06:29:07;20.30;;;7.27;;
21507;SDS011;10915;54.352;9.074;2023-03-14T06:31:33;21.40;;;7.87;;
21507;SDS011;10915;54.352;9.074;2023-03-14T06:33:59;21.07;;;6.97;;
21507;SDS011;10915;54.352;9.074;2023-03-14T06:36:25;24.57;;;8.33;;
21507;SDS011;10915;54.352;9.074;2023-03-14T06:38:50;20.63;;;7.57;;
21507;SDS011;10915;54.352;9.074;2023-03-14T06:41:16;21.23;;;8.23;;
21507;SDS011;10915;54.352;9.074;2023-03-14T06:43:42;25.93;;;8.17;;
21507;SDS011;10915;54.352;9.074;2023-03-14T06:46:07;22.57;;;7.43;;
21507;SDS011;10915;54.352;9.074;2023-03-14T06:48:33;18.27;;;8.43;;
21507;SDS011;10915;54.352;9.074;2023-03-14T06:50:59;18.83;;;7.93;;
21507;SDS011;10915;54.352;9.074;2023-03-14T06:53:24;25.67;;;9.53;;
21507;SDS011;10915;54.352;9.074;2023-03-14T06:55:50;21.93;;;8.57;;
21507;SDS011;10915;54.352;9.074;2023-03-14T06:58:16;25.77;;;9.00;;
21507;SDS011;10915;54.352;9.074;2023-03-14T07:00:42;28.53;;;8.60;;
21507;SDS011;10915;54.352;9.074;2023-03-14T07:03:08;23.20;;;8.70;;
21507;SDS011;10915;54.352;9.074;2023-03-14T07:05:34;20.33;;;9.00;;
21507;SDS011;10915;54.352;9.074;2023-03-14T07:08:00;20.27;;;7.90;;
21507;SDS011;10915;54.352;9.074;2023-03-14T07:10:26;20.03;;;7.37;;
21507;SDS011;10915;54.352;9.074;2023-03-14T07:12:52;21.43;;;8.07;;
21507;SDS011;10915;54.352;9.074;2023-03-14T07:15:18;20.20;;;8.00;;
21507;SDS011;10915;54.352;9.074;2023-03-14T07:17:44;18.87;;;8.33;;
21507;SDS011;10915;54.352;9.074;2023-03-14T07:20:13;23.13;;;9.37;;
21507;SDS011;10915;54.352;9.074;2023-03-14T07:22:38;24.17;;;8.40;;
21507;SDS011;10915;54.352;9.074;2023-03-14T07:25:04;20.17;;;8.03;;
21507;SDS011;10915;54.352;9.074;2023-03-14T07:27:30;24.77;;;9.80;;
21507;SDS011;10915;54.352;9.074;2023-03-14T07:29:55;30.37;;;15.73;;
21507;SDS011;10915;54.352;9.074;2023-03-14T07:32:21;28.70;;;11.47;;
21507;SDS011;10915;54.352;9.074;2023-03-14T07:34:47;7.93;;;3.60;;
21507;SDS011;10915;54.352;9.074;2023-03-14T07:37:12;9.57;;;4.27;;
21507;SDS011;10915;54.352;9.074;2023-03-14T07:39:39;4.00;;;1.37;;
21507;SDS011;10915;54.352;9.074;2023-03-14T07:42:04;5.03;;;1.40;;
21507;SDS011;10915;54.352;9.074;2023-03-14T07:44:31;9.43;;;2.20;;
21507;SDS011;10915;54.352;9.074;2023-03-14T07:46:57;11.23;;;2.53;;
21507;SDS011;10915;54.352;9.074;2023-03-14T07:49:23;9.60;;;2.17;;
21507;SDS011;10915;54.352;9.074;2023-03-14T07:51:48;8.63;;;1.90;;
21507;SDS011;10915;54.352;9.074;2023-03-14T07:54:15;8.50;;;1.87;;
21507;SDS011;10915;54.352;9.074;2023-03-14T07:56:41;4.77;;;1.63;;
21507;SDS011;10915;54.352;9.074;2023-03-14T07:59:06;4.97;;;1.43;;
21507;SDS011;10915;54.352;9.074;2023-03-14T08:01:32;6.43;;;1.17;;
21507;SDS011;10915;54.352;9.074;2023-03-14T08:03:57;3.40;;;1.03;;
21507;SDS011;10915;54.352;9.074;2023-03-14T08:06:23;6.57;;;1.30;;
21507;SDS011;10915;54.352;9.074;2023-03-14T08:08:49;4.87;;;1.13;;
21507;SDS011;10915;54.352;9.074;2023-03-14T08:11:15;4.13;;;1.47;;
21507;SDS011;10915;54.352;9.074;2023-03-14T08:13:40;6.20;;;1.60;;
21507;SDS011;10915;54.352;9.074;2023-03-14T08:16:06;6.13;;;1.27;;
21507;SDS011;10915;54.352;9.074;2023-03-14T08:18:32;3.87;;;1.10;;
21507;SDS011;10915;54.352;9.074;2023-03-14T08:20:58;5.63;;;1.33;;
21507;SDS011;10915;54.352;9.074;2023-03-14T08:23:23;4.13;;;1.10;;
21507;SDS011;10915;54.352;9.074;2023-03-14T08:25:49;5.00;;;0.70;;
21507;SDS011;10915;54.352;9.074;2023-03-14T08:28:16;1.13;;;0.77;;
21507;SDS011;10915;54.352;9.074;2023-03-14T08:30:42;4.57;;;1.57;;
21507;SDS011;10915;54.352;9.074;2023-03-14T08:33:08;2.17;;;0.70;;
21507;SDS011;10915;54.352;9.074;2023-03-14T08:35:34;1.50;;;0.50;;
21507;SDS011;10915;54.352;9.074;2023-03-14T08:37:59;1.70;;;0.60;;
21507;SDS011;10915;54.352;9.074;2023-03-14T08:40:26;1.80;;;0.67;;
21507;SDS011;10915;54.352;9.074;2023-03-14T08:42:51;3.63;;;0.70;;
21507;SDS011;10915;54.352;9.074;2023-03-14T08:45:17;3.67;;;0.93;;
21507;SDS011;10915;54.352;9.074;2023-03-14T08:47:43;3.97;;;1.27;;
21507;SDS011;10915;54.352;9.074;2023-03-14T08:50:09;4.27;;;0.80;;
21507;SDS011;10915;54.352;9.074;2023-03-14T08:52:36;3.23;;;0.87;;
21507;SDS011;10915;54.352;9.074;2023-03-14T08:55:03;2.70;;;0.90;;
21507;SDS011;10915;54.352;9.074;2023-03-14T08:57:29;4.13;;;0.80;;
21507;SDS011;10915;54.352;9.074;2023-03-14T08:59:55;2.47;;;0.80;;
21507;SDS011;10915;54.352;9.074;2023-03-14T09:02:22;4.00;;;0.70;;
21507;SDS011;10915;54.352;9.074;2023-03-14T09:04:52;3.70;;;1.00;;
21507;SDS011;10915;54.352;9.074;2023-03-14T09:07:18;2.90;;;0.80;;
21507;SDS011;10915;54.352;9.074;2023-03-14T09:09:44;1.67;;;0.63;;
21507;SDS011;10915;54.352;9.074;2023-03-14T09:12:10;2.23;;;1.10;;
21507;SDS011;10915;54.352;9.074;2023-03-14T09:14:36;4.43;;;1.00;;
21507;SDS011;10915;54.352;9.074;2023-03-14T09:17:02;4.40;;;0.87;;
21507;SDS011;10915;54.352;9.074;2023-03-14T09:19:28;5.00;;;1.10;;
21507;SDS011;10915;54.352;9.074;2023-03-14T09:21:54;2.67;;;0.90;;
21507;SDS011;10915;54.352;9.074;2023-03-14T09:24:20;2.90;;;0.87;;
21507;SDS011;10915;54.352;9.074;2023-03-14T09:26:45;3.00;;;1.00;;
21507;SDS011;10915;54.352;9.074;2023-03-14T09:29:11;3.20;;;0.70;;
21507;SDS011;10915;54.352;9.074;2023-03-14T09:31:37;4.70;;;1.07;;
21507;SDS011;10915;54.352;9.074;2023-03-14T09:34:02;3.07;;;1.10;;
21507;SDS011;10915;54.352;9.074;2023-03-14T09:36:28;5.50;;;0.93;;
21507;SDS011;10915;54.352;9.074;2023-03-14T09:38:55;7.67;;;1.30;;
21507;SDS011;10915;54.352;9.074;2023-03-14T09:41:31;5.83;;;1.07;;
21507;SDS011;10915;54.352;9.074;2023-03-14T09:44:04;2.47;;;0.63;;
21507;SDS011;10915;54.352;9.074;2023-03-14T09:46:36;5.67;;;1.10;;
21507;SDS011;10915;54.352;9.074;2023-03-14T09:49:08;4.63;;;1.13;;
21507;SDS011;10915;54.352;9.074;2023-03-14T09:51:55;8.37;;;1.20;;
21507;SDS011;10915;54.352;9.074;2023-03-14T09:54:34;6.73;;;1.20;;
21507;SDS011;10915;54.352;9.074;2023-03-14T09:57:02;6.70;;;1.40;;
21507;SDS011;10915;54.352;9.074;2023-03-14T09:59:29;6.30;;;1.20;;
21507;SDS011;10915;54.352;9.074;2023-03-14T10:01:57;10.90;;;2.00;;
21507;SDS011;10915;54.352;9.074;2023-03-14T10:04:26;8.87;;;2.03;;
21507;SDS011;10915;54.352;9.074;2023-03-14T10:06:53;5.83;;;1.77;;
21507;SDS011;10915;54.352;9.074;2023-03-14T10:09:20;7.87;;;2.00;;
21507;SDS011;10915;54.352;9.074;2023-03-14T10:11:51;8.13;;;2.10;;
21507;SDS011;10915;54.352;9.074;2023-03-14T10:14:33;6.07;;;1.77;;
21507;SDS011;10915;54.352;9.074;2023-03-14T10:17:08;11.73;;;2.20;;
21507;SDS011;10915;54.352;9.074;2023-03-14T10:19:36;9.70;;;1.80;;
21507;SDS011;10915;54.352;9.074;2023-03-14T10:22:03;8.80;;;2.57;;
21507;SDS011;10915;54.352;9.074;2023-03-14T10:24:32;8.10;;;2.10;;
21507;SDS011;10915;54.352;9.074;2023-03-14T10:27:04;12.00;;;2.83;;
21507;SDS011;10915;54.352;9.074;2023-03-14T10:29:50;9.37;;;2.23;;
21507;SDS011;10915;54.352;9.074;2023-03-14T10:32:19;12.10;;;2.60;;
21507;SDS011;10915;54.352;9.074;2023-03-14T10:34:54;10.60;;;2.50;;
21507;SDS011;10915;54.352;9.074;2023-03-14T10:37:31;9.60;;;2.23;;
21507;SDS011;10915;54.352;9.074;2023-03-14T10:40:00;10.83;;;2.73;;
21507;SDS011;10915;54.352;9.074;2023-03-14T10:42:30;10.13;;;2.57;;
21507;SDS011;10915;54.352;9.074;2023-03-14T10:45:47;8.80;;;2.20;;
21507;SDS011;10915;54.352;9.074;2023-03-14T10:47:49;13.13;;;3.10;;
21507;SDS011;10915;54.352;9.074;2023-03-14T10:50:28;12.43;;;2.90;;
21507;SDS011;10915;54.352;9.074;2023-03-14T10:52:56;10.13;;;2.97;;
21507;SDS011;10915;54.352;9.074;2023-03-14T10:55:25;11.53;;;2.70;;
21507;SDS011;10915;54.352;9.074;2023-03-14T10:57:51;13.10;;;3.00;;
21507;SDS011;10915;54.352;9.074;2023-03-14T11:00:18;16.33;;;2.90;;
21507;SDS011;10915;54.352;9.074;2023-03-14T11:02:49;14.20;;;3.33;;
21507;SDS011;10915;54.352;9.074;2023-03-14T11:08:09;14.37;;;3.20;;
21507;SDS011;10915;54.352;9.074;2023-03-14T11:10:40;11.37;;;2.83;;
21507;SDS011;10915;54.352;9.074;2023-03-14T11:13:17;11.23;;;3.07;;
21507;SDS011;10915;54.352;9.074;2023-03-14T11:19:14;13.90;;;3.30;;
21507;SDS011;10915;54.352;9.074;2023-03-14T11:32:59;18.87;;;3.80;;
21507;SDS011;10915;54.352;9.074;2023-03-14T11:35:34;17.63;;;4.03;;
21507;SDS011;10915;54.352;9.074;2023-03-14T11:40:52;13.47;;;2.43;;
21507;SDS011;10915;54.352;9.074;2023-03-14T11:43:30;13.70;;;3.23;;
21507;SDS011;10915;54.352;9.074;2023-03-14T11:46:03;12.33;;;2.80;;
21507;SDS011;10915;54.352;9.074;2023-03-14T11:48:39;15.13;;;3.30;;
21507;SDS011;10915;54.352;9.074;2023-03-14T11:51:33;11.13;;;3.20;;
21507;SDS011;10915;54.352;9.074;2023-03-14T11:54:08;11.17;;;2.60;;
21507;SDS011;10915;54.352;9.074;2023-03-14T11:56:59;10.83;;;2.70;;
21507;SDS011;10915;54.352;9.074;2023-03-14T12:02:19;10.93;;;2.40;;
21507;SDS011;10915;54.352;9.074;2023-03-14T12:10:48;10.30;;;2.13;;
21507;SDS011;10915;54.352;9.074;2023-03-14T12:13:19;10.97;;;2.40;;
21507;SDS011;10915;54.352;9.074;2023-03-14T12:15:50;11.63;;;2.60;;
21507;SDS011;10915;54.352;9.074;2023-03-14T12:18:27;12.17;;;2.67;;
21507;SDS011;10915;54.352;9.074;2023-03-14T12:21:07;9.53;;;2.87;;
21507;SDS011;10915;54.352;9.074;2023-03-14T12:23:41;10.87;;;2.10;;
21507;SDS011;10915;54.352;9.074;2023-03-14T12:26:19;12.23;;;2.83;;
21507;SDS011;10915;54.352;9.074;2023-03-14T12:34:03;12.10;;;1.77;;
21507;SDS011;10915;54.352;9.074;2023-03-14T12:44:38;9.00;;;1.63;;
21507;SDS011;10915;54.352;9.074;2023-03-14T12:49:43;10.33;;;2.13;;
21507;SDS011;10915;54.352;9.074;2023-03-14T12:55:10;9.10;;;2.47;;
21507;SDS011;10915;54.352;9.074;2023-03-14T13:00:42;11.43;;;2.43;;
21507;SDS011;10915;54.352;9.074;2023-03-14T13:03:20;10.50;;;2.57;;
21507;SDS011;10915;54.352;9.074;2023-03-14T13:05:56;13.87;;;2.70;;
21507;SDS011;10915;54.352;9.074;2023-03-14T13:10:59;11.80;;;2.40;;
21507;SDS011;10915;54.352;9.074;2023-03-14T13:13:27;10.93;;;2.17;;
21507;SDS011;10915;54.352;9.074;2023-03-14T13:15:54;6.83;;;1.83;;
21507;SDS011;10915;54.352;9.074;2023-03-14T13:23:38;18.17;;;3.07;;
21507;SDS011;10915;54.352;9.074;2023-03-14T13:26:06;9.50;;;1.70;;
21507;SDS011;10915;54.352;9.074;2023-03-14T13:28:38;8.27;;;2.20;;
21507;SDS011;10915;54.352;9.074;2023-03-14T13:31:03;7.57;;;1.87;;
21507;SDS011;10915;54.352;9.074;2023-03-14T13:33:33;9.73;;;1.93;;
21507;SDS011;10915;54.352;9.074;2023-03-14T13:36:00;11.60;;;1.97;;
21507;SDS011;10915;54.352;9.074;2023-03-14T13:38:29;13.63;;;2.43;;
21507;SDS011;10915;54.352;9.074;2023-03-14T13:41:00;10.53;;;2.50;;
21507;SDS011;10915;54.352;9.074;2023-03-14T13:43:30;10.20;;;2.30;;
21507;SDS011;10915;54.352;9.074;2023-03-14T13:46:20;11.77;;;2.73;;
21507;SDS011;10915;54.352;9.074;2023-03-14T13:48:52;9.97;;;2.83;;
21507;SDS011;10915;54.352;9.074;2023-03-14T13:51:23;14.13;;;2.53;;
21507;SDS011;10915;54.352;9.074;2023-03-14T13:53:53;10.17;;;2.53;;
21507;SDS011;10915;54.352;9.074;2023-03-14T13:56:24;11.27;;;2.63;;
21507;SDS011;10915;54.352;9.074;2023-03-14T13:58:51;10.90;;;2.57;;
21507;SDS011;10915;54.352;9.074;2023-03-14T14:01:34;9.67;;;2.67;;
21507;SDS011;10915;54.352;9.074;2023-03-14T14:04:06;12.67;;;3.13;;
21507;SDS011;10915;54.352;9.074;2023-03-14T14:06:35;10.87;;;3.10;;
21507;SDS011;10915;54.352;9.074;2023-03-14T14:09:04;12.10;;;2.70;;
21507;SDS011;10915;54.352;9.074;2023-03-14T14:14:06;12.17;;;3.60;;
21507;SDS011;10915;54.352;9.074;2023-03-14T14:16:46;16.27;;;3.40;;
21507;SDS011;10915;54.352;9.074;2023-03-14T14:19:14;13.07;;;3.20;;
21507;SDS011;10915;54.352;9.074;2023-03-14T14:21:41;12.70;;;2.53;;
21507;SDS011;10915;54.352;9.074;2023-03-14T14:24:12;9.73;;;2.53;;
21507;SDS011;10915;54.352;9.074;2023-03-14T14:26:52;9.93;;;2.40;;
21507;SDS011;10915;54.352;9.074;2023-03-14T14:29:30;8.53;;;2.40;;
21507;SDS011;10915;54.352;9.074;2023-03-14T14:32:01;10.47;;;2.47;;
21507;SDS011;10915;54.352;9.074;2023-03-14T14:34:28;17.83;;;3.07;;
21507;SDS011;10915;54.352;9.074;2023-03-14T14:36:53;11.90;;;2.90;;
21507;SDS011;10915;54.352;9.074;2023-03-14T14:39:26;12.33;;;2.77;;
21507;SDS011;10915;54.352;9.074;2023-03-14T14:41:53;11.00;;;2.77;;
21507;SDS011;10915;54.352;9.074;2023-03-14T14:44:41;11.57;;;3.27;;
21507;SDS011;10915;54.352;9.074;2023-03-14T14:47:11;13.63;;;2.97;;
21507;SDS011;10915;54.352;9.074;2023-03-14T14:49:38;10.43;;;2.77;;
21507;SDS011;10915;54.352;9.074;2023-03-14T14:52:08;10.87;;;2.83;;
21507;SDS011;10915;54.352;9.074;2023-03-14T14:54:37;16.03;;;3.00;;
21507;SDS011;10915;54.352;9.074;2023-03-14T14:57:15;13.23;;;2.87;;
21507;SDS011;10915;54.352;9.074;2023-03-14T14:59:44;7.77;;;2.60;;
21507;SDS011;10915;54.352;9.074;2023-03-14T15:02:23;17.23;;;3.37;;
21507;SDS011;10915;54.352;9.074;2023-03-14T15:04:54;11.73;;;2.93;;
21507;SDS011;10915;54.352;9.074;2023-03-14T15:07:20;12.20;;;3.40;;
21507;SDS011;10915;54.352;9.074;2023-03-14T15:09:45;12.20;;;2.87;;
21507;SDS011;10915;54.352;9.074;2023-03-14T15:12:11;16.30;;;3.50;;
21507;SDS011;10915;54.352;9.074;2023-03-14T15:14:37;15.10;;;3.50;;
21507;SDS011;10915;54.352;9.074;2023-03-14T15:17:03;12.80;;;3.07;;
21507;SDS011;10915;54.352;9.074;2023-03-14T15:19:28;15.73;;;3.80;;
21507;SDS011;10915;54.352;9.074;2023-03-14T15:21:57;15.03;;;3.53;;
21507;SDS011;10915;54.352;9.074;2023-03-14T15:24:23;18.03;;;3.80;;
21507;SDS011;10915;54.352;9.074;2023-03-14T15:26:49;20.97;;;4.30;;
21507;SDS011;10915;54.352;9.074;2023-03-14T15:29:15;11.00;;;3.40;;
21507;SDS011;10915;54.352;9.074;2023-03-14T15:31:40;14.23;;;3.33;;
21507;SDS011;10915;54.352;9.074;2023-03-14T15:34:08;14.77;;;3.43;;
21507;SDS011;10915;54.352;9.074;2023-03-14T15:36:34;12.40;;;3.03;;
21507;SDS011;10915;54.352;9.074;2023-03-14T15:39:00;9.70;;;2.87;;
21507;SDS011;10915;54.352;9.074;2023-03-14T15:41:27;10.40;;;3.00;;
21507;SDS011;10915;54.352;9.074;2023-03-14T15:43:53;11.13;;;2.97;;
21507;SDS011;10915;54.352;9.074;2023-03-14T15:46:19;12.63;;;3.27;;
21507;SDS011;10915;54.352;9.074;2023-03-14T15:48:46;18.50;;;4.17;;
21507;SDS011;10915;54.352;9.074;2023-03-14T15:51:13;15.43;;;4.33;;
21507;SDS011;10915;54.352;9.074;2023-03-14T15:53:39;12.47;;;3.47;;
21507;SDS011;10915;54.352;9.074;2023-03-14T15:56:05;12.47;;;3.47;;
21507;SDS011;10915;54.352;9.074;2023-03-14T15:58:33;8.73;;;2.70;;
21507;SDS011;10915;54.352;9.074;2023-03-14T16:01:02;12.93;;;3.27;;